createdAt,value
2018-12-25T00:00:38.930Z,18.86
2018-12-25T00:01:38.731Z,18.82
2018-12-25T00:02:38.666Z,18.86
2018-12-25T00:03:38.656Z,18.83
2018-12-25T00:04:38.645Z,18.83
2018-12-25T00:05:38.636Z,18.86
2018-12-25T00:06:38.676Z,18.83
2018-12-25T00:07:38.625Z,18.83
2018-12-25T00:08:38.614Z,18.82
2018-12-25T00:09:38.602Z,18.87
2018-12-25T00:10:38.855Z,18.93
2018-12-25T00:11:38.589Z,18.84
2018-12-25T00:12:38.559Z,18.83
2018-12-25T00:13:38.797Z,18.84
2018-12-25T00:14:38.539Z,18.82
2018-12-25T00:15:38.535Z,18.87
2018-12-25T00:16:38.564Z,18.82
2018-12-25T00:17:38.517Z,18.78
2018-12-25T00:18:38.499Z,18.89
2018-12-25T00:19:38.488Z,18.89
2018-12-25T00:20:38.844Z,18.86
2018-12-25T00:21:38.473Z,18.89
2018-12-25T00:22:38.459Z,18.86
2018-12-25T00:23:38.440Z,18.89
2018-12-25T00:24:38.447Z,18.76
2018-12-25T00:25:38.798Z,18.86
2018-12-25T00:26:38.421Z,18.82
2018-12-25T00:27:38.398Z,18.79
2018-12-25T00:28:38.429Z,18.82
2018-12-25T00:29:38.380Z,18.84
2018-12-25T00:30:38.613Z,18.83
2018-12-25T00:31:38.361Z,18.79
2018-12-25T00:32:38.345Z,18.84
2018-12-25T00:33:38.339Z,18.90
2018-12-25T00:34:38.378Z,18.86
2018-12-25T00:35:38.304Z,18.84
2018-12-25T00:36:38.315Z,18.86
2018-12-25T00:37:38.787Z,18.84
2018-12-25T00:38:38.286Z,18.91
2018-12-25T00:39:38.268Z,18.83
2018-12-25T00:40:38.254Z,18.90
2018-12-25T00:41:38.258Z,18.86
2018-12-25T00:42:39.012Z,18.86
2018-12-25T00:43:38.543Z,18.89
2018-12-25T00:44:38.463Z,18.89
2018-12-25T00:45:38.197Z,18.89
2018-12-25T00:46:38.207Z,18.84
2018-12-25T00:47:38.177Z,18.84
2018-12-25T00:48:38.178Z,18.84
2018-12-25T00:49:38.259Z,18.86
2018-12-25T00:50:38.416Z,18.89
2018-12-25T00:51:38.420Z,18.93
2018-12-25T00:52:38.129Z,18.86
2018-12-25T00:53:38.114Z,18.89
2018-12-25T00:54:38.100Z,18.89
2018-12-25T00:55:38.084Z,18.79
2018-12-25T00:56:38.094Z,18.91
2018-12-25T00:57:38.069Z,18.79
2018-12-25T00:58:38.099Z,18.78
2018-12-25T00:59:38.043Z,18.79
2018-12-25T01:00:39.360Z,18.86
2018-12-25T01:01:38.035Z,18.78
2018-12-25T01:02:38.032Z,18.84
2018-12-25T01:03:38.001Z,18.79
2018-12-25T01:04:37.987Z,18.78
2018-12-25T01:05:38.068Z,18.76
2018-12-25T01:06:37.996Z,18.76
2018-12-25T01:07:38.216Z,18.82
2018-12-25T01:08:37.961Z,18.87
2018-12-25T01:09:37.940Z,18.79
2018-12-25T01:10:37.922Z,18.87
2018-12-25T01:11:37.925Z,18.89
2018-12-25T01:12:37.919Z,18.90
2018-12-25T01:13:38.149Z,18.87
2018-12-25T01:14:38.141Z,18.79
2018-12-25T01:15:38.134Z,18.79
2018-12-25T01:16:37.877Z,18.86
2018-12-25T01:17:37.898Z,18.84
2018-12-25T01:18:37.848Z,18.86
2018-12-25T01:19:37.862Z,18.93
2018-12-25T01:20:37.811Z,18.84
2018-12-25T01:21:37.802Z,18.90
2018-12-25T01:22:37.798Z,18.83
2018-12-25T01:23:37.807Z,18.87
2018-12-25T01:24:37.771Z,18.90
2018-12-25T01:25:37.777Z,18.91
2018-12-25T01:26:37.747Z,18.83
2018-12-25T01:27:38.005Z,18.82
2018-12-25T01:28:37.724Z,18.76
2018-12-25T01:29:37.717Z,18.83
2018-12-25T01:30:37.709Z,18.82
2018-12-25T01:31:37.699Z,18.76
2018-12-25T01:32:37.948Z,18.78
2018-12-25T01:33:38.053Z,18.90
2018-12-25T01:34:37.662Z,18.78
2018-12-25T01:35:37.953Z,18.90
2018-12-25T01:36:37.639Z,18.83
2018-12-25T01:37:37.653Z,18.83
2018-12-25T01:38:37.872Z,18.83
2018-12-25T01:39:37.615Z,18.82
2018-12-25T01:40:37.861Z,18.89
2018-12-25T01:41:37.596Z,18.79
2018-12-25T01:42:37.622Z,18.90
2018-12-25T01:43:37.637Z,18.84
2018-12-25T01:44:37.555Z,18.82
2018-12-25T01:45:37.563Z,18.83
2018-12-25T01:46:37.529Z,18.91
2018-12-25T01:47:37.573Z,18.87
2018-12-25T01:48:37.512Z,18.84
2018-12-25T01:49:37.501Z,18.74
2018-12-25T01:50:37.493Z,18.84
2018-12-25T01:51:37.489Z,18.86
2018-12-25T01:52:37.497Z,18.87
2018-12-25T01:53:37.459Z,18.83
2018-12-25T01:54:37.450Z,18.87
2018-12-25T01:55:37.432Z,18.84
2018-12-25T01:56:37.430Z,18.84
2018-12-25T01:57:37.464Z,18.90
2018-12-25T01:58:37.399Z,18.86
2018-12-25T01:59:37.461Z,18.86
2018-12-25T02:00:37.380Z,18.89
2018-12-25T02:01:37.363Z,18.78
2018-12-25T02:02:37.377Z,18.90
2018-12-25T02:03:37.370Z,18.79
2018-12-25T02:04:37.346Z,18.79
2018-12-25T02:05:37.321Z,18.75
2018-12-25T02:06:37.317Z,18.86
2018-12-25T02:07:37.315Z,18.76
2018-12-25T02:08:37.293Z,18.74
2018-12-25T02:09:37.540Z,18.82
2018-12-25T02:10:37.278Z,18.84
2018-12-25T02:11:37.255Z,18.76
2018-12-25T02:12:37.262Z,18.78
2018-12-25T02:13:37.240Z,18.75
2018-12-25T02:14:37.487Z,18.79
2018-12-25T02:15:37.471Z,18.84
2018-12-25T02:16:37.206Z,18.78
2018-12-25T02:17:37.715Z,18.82
2018-12-25T02:18:37.184Z,18.82
2018-12-25T02:19:40.280Z,18.74
2018-12-25T02:20:37.421Z,18.87
2018-12-25T02:21:37.167Z,18.74
2018-12-25T02:22:37.154Z,18.75
2018-12-25T02:23:37.145Z,18.78
2018-12-25T02:24:37.175Z,18.79
2018-12-25T02:25:37.163Z,18.86
2018-12-25T02:26:37.095Z,18.82
2018-12-25T02:27:37.360Z,18.79
2018-12-25T02:28:37.081Z,18.83
2018-12-25T02:29:37.062Z,18.78
2018-12-25T02:30:37.069Z,18.84
2018-12-25T02:31:37.039Z,18.83
2018-12-25T02:32:37.043Z,18.84
2018-12-25T02:33:37.040Z,18.78
2018-12-25T02:34:37.264Z,18.76
2018-12-25T02:35:37.001Z,18.74
2018-12-25T02:36:36.985Z,18.84
2018-12-25T02:37:36.995Z,18.75
2018-12-25T02:38:36.980Z,18.84
2018-12-25T02:39:37.215Z,18.78
2018-12-25T02:40:37.206Z,18.78
2018-12-25T02:41:36.937Z,18.76
2018-12-25T02:42:36.980Z,18.75
2018-12-25T02:43:36.972Z,18.79
2018-12-25T02:44:37.152Z,18.74
2018-12-25T02:45:36.900Z,18.86
2018-12-25T02:46:36.902Z,18.79
2018-12-25T02:47:36.881Z,18.74
2018-12-25T02:48:36.873Z,18.78
2018-12-25T02:49:36.847Z,18.75
2018-12-25T02:50:36.849Z,18.78
2018-12-25T02:51:37.337Z,18.74
2018-12-25T02:52:36.831Z,18.79
2018-12-25T02:53:36.818Z,18.76
2018-12-25T02:54:36.789Z,18.78
2018-12-25T02:55:37.036Z,18.74
2018-12-25T02:56:36.783Z,18.72
2018-12-25T02:57:36.775Z,18.71
2018-12-25T02:58:36.751Z,18.71
2018-12-25T02:59:36.737Z,18.72
2018-12-25T03:00:37.024Z,18.75
2018-12-25T03:01:36.715Z,18.71
2018-12-25T03:02:36.726Z,18.76
2018-12-25T03:03:36.818Z,18.82
2018-12-25T03:04:37.006Z,18.78
2018-12-25T03:05:36.675Z,18.72
2018-12-25T03:06:36.665Z,18.74
2018-12-25T03:07:36.924Z,18.76
2018-12-25T03:08:37.161Z,18.75
2018-12-25T03:09:36.693Z,18.75
2018-12-25T03:10:36.634Z,18.71
2018-12-25T03:11:36.615Z,18.72
2018-12-25T03:12:36.853Z,18.76
2018-12-25T03:13:36.594Z,18.74
2018-12-25T03:14:36.584Z,18.74
2018-12-25T03:15:36.569Z,18.78
2018-12-25T03:16:36.567Z,18.82
2018-12-25T03:17:36.540Z,18.74
2018-12-25T03:18:36.561Z,18.79
2018-12-25T03:19:36.524Z,18.75
2018-12-25T03:20:36.510Z,18.75
2018-12-25T03:21:36.506Z,18.78
2018-12-25T03:22:36.493Z,18.76
2018-12-25T03:23:36.497Z,18.75
2018-12-25T03:24:36.466Z,18.79
2018-12-25T03:25:36.462Z,18.75
2018-12-25T03:26:36.450Z,18.74
2018-12-25T03:27:36.697Z,18.76
2018-12-25T03:28:36.449Z,18.74
2018-12-25T03:29:36.674Z,18.79
2018-12-25T03:30:36.404Z,18.78
2018-12-25T03:31:36.404Z,18.76
2018-12-25T03:32:36.650Z,18.74
2018-12-25T03:33:36.381Z,18.75
2018-12-25T03:34:36.358Z,18.69
2018-12-25T03:35:36.378Z,18.74
2018-12-25T03:36:36.336Z,18.76
2018-12-25T03:37:36.584Z,18.74
2018-12-25T03:38:36.338Z,18.74
2018-12-25T03:39:36.315Z,18.82
2018-12-25T03:40:36.299Z,18.72
2018-12-25T03:41:36.282Z,18.74
2018-12-25T03:42:36.369Z,18.74
2018-12-25T03:43:36.323Z,18.75
2018-12-25T03:44:36.255Z,18.75
2018-12-25T03:45:36.492Z,18.72
2018-12-25T03:46:36.228Z,18.76
2018-12-25T03:47:36.213Z,18.74
2018-12-25T03:48:36.218Z,18.78
2018-12-25T03:49:36.449Z,18.74
2018-12-25T03:50:36.195Z,18.78
2018-12-25T03:51:36.168Z,18.78
2018-12-25T03:52:36.419Z,18.74
2018-12-25T03:53:36.161Z,18.75
2018-12-25T03:54:36.139Z,18.78
2018-12-25T03:55:36.126Z,18.82
2018-12-25T03:56:36.122Z,18.76
2018-12-25T03:57:36.108Z,18.78
2018-12-25T03:58:36.367Z,18.74
2018-12-25T03:59:36.088Z,18.72
2018-12-25T04:00:36.094Z,18.74
2018-12-25T04:01:36.067Z,18.69
2018-12-25T04:02:36.057Z,18.75
2018-12-25T04:03:36.059Z,18.72
2018-12-25T04:04:36.033Z,18.71
2018-12-25T04:05:36.070Z,18.76
2018-12-25T04:06:36.008Z,18.72
2018-12-25T04:07:36.014Z,18.74
2018-12-25T04:08:36.004Z,18.74
2018-12-25T04:09:36.039Z,18.69
2018-12-25T04:10:35.962Z,18.74
2018-12-25T04:11:36.132Z,18.74
2018-12-25T04:12:35.946Z,18.78
2018-12-25T04:13:35.952Z,18.74
2018-12-25T04:14:35.928Z,18.78
2018-12-25T04:15:35.945Z,18.69
2018-12-25T04:16:35.901Z,18.72
2018-12-25T04:17:36.033Z,18.78
2018-12-25T04:18:35.940Z,18.74
2018-12-25T04:19:35.915Z,18.74
2018-12-25T04:20:44.093Z,18.72
2018-12-25T04:21:35.951Z,18.71
2018-12-25T04:22:36.098Z,18.74
2018-12-25T04:23:35.845Z,18.74
2018-12-25T04:24:35.817Z,18.68
2018-12-25T04:25:35.799Z,18.68
2018-12-25T04:26:35.793Z,18.72
2018-12-25T04:27:35.777Z,18.71
2018-12-25T04:28:35.766Z,18.75
2018-12-25T04:29:35.762Z,18.76
2018-12-25T04:30:35.748Z,18.74
2018-12-25T04:31:35.738Z,18.74
2018-12-25T04:32:35.725Z,18.74
2018-12-25T04:33:35.990Z,18.68
2018-12-25T04:34:35.721Z,18.76
2018-12-25T04:35:35.695Z,18.74
2018-12-25T04:36:35.685Z,18.74
2018-12-25T04:37:35.932Z,18.72
2018-12-25T04:38:35.659Z,18.74
2018-12-25T04:39:35.671Z,18.74
2018-12-25T04:40:36.144Z,18.71
2018-12-25T04:41:35.627Z,18.71
2018-12-25T04:42:35.669Z,18.69
2018-12-25T04:43:35.603Z,18.71
2018-12-25T04:44:35.615Z,18.72
2018-12-25T04:45:35.598Z,18.65
2018-12-25T04:46:35.573Z,18.69
2018-12-25T04:47:35.596Z,18.68
2018-12-25T04:48:35.813Z,18.74
2018-12-25T04:49:35.619Z,18.69
2018-12-25T04:50:35.538Z,18.76
2018-12-25T04:51:35.573Z,18.68
2018-12-25T04:52:35.508Z,18.74
2018-12-25T04:53:35.500Z,18.66
2018-12-25T04:54:35.498Z,18.69
2018-12-25T04:55:35.487Z,18.69
2018-12-25T04:56:35.467Z,18.65
2018-12-25T04:57:35.467Z,18.71
2018-12-25T04:58:35.485Z,18.71
2018-12-25T04:59:35.525Z,18.74
2018-12-25T05:00:35.431Z,18.71
2018-12-25T05:01:35.417Z,18.65
2018-12-25T05:02:35.404Z,18.74
2018-12-25T05:03:35.392Z,18.65
2018-12-25T05:04:35.390Z,18.75
2018-12-25T05:05:35.366Z,18.72
2018-12-25T05:06:35.363Z,18.68
2018-12-25T05:07:35.351Z,18.69
2018-12-25T05:08:35.363Z,18.68
2018-12-25T05:09:35.342Z,18.72
2018-12-25T05:10:35.325Z,18.76
2018-12-25T05:11:35.361Z,18.72
2018-12-25T05:12:35.291Z,18.72
2018-12-25T05:13:35.291Z,18.74
2018-12-25T05:14:35.282Z,18.75
2018-12-25T05:15:35.256Z,18.76
2018-12-25T05:16:35.245Z,18.71
2018-12-25T05:17:35.245Z,18.74
2018-12-25T05:18:35.224Z,18.71
2018-12-25T05:19:35.227Z,18.68
2018-12-25T05:20:37.960Z,18.74
2018-12-25T05:21:35.202Z,18.78
2018-12-25T05:22:35.187Z,18.71
2018-12-25T05:23:35.173Z,18.71
2018-12-25T05:24:35.439Z,18.74
2018-12-25T05:25:35.149Z,18.76
2018-12-25T05:26:35.139Z,18.72
2018-12-25T05:27:35.125Z,18.71
2018-12-25T05:28:35.144Z,18.69
2018-12-25T05:29:35.121Z,18.71
2018-12-25T05:30:35.158Z,18.72
2018-12-25T05:31:35.083Z,18.69
2018-12-25T05:32:35.077Z,18.69
2018-12-25T05:33:35.068Z,18.68
2018-12-25T05:34:35.334Z,18.71
2018-12-25T05:35:35.041Z,18.71
2018-12-25T05:36:35.026Z,18.71
2018-12-25T05:37:35.047Z,18.68
2018-12-25T05:38:35.023Z,18.68
2018-12-25T05:39:35.010Z,18.72
2018-12-25T05:40:35.248Z,18.68
2018-12-25T05:41:34.971Z,18.65
2018-12-25T05:42:34.962Z,18.68
2018-12-25T05:43:34.952Z,18.74
2018-12-25T05:44:34.949Z,18.68
2018-12-25T05:45:34.928Z,18.65
2018-12-25T05:46:35.173Z,18.71
2018-12-25T05:47:34.928Z,18.65
2018-12-25T05:48:35.166Z,18.75
2018-12-25T05:49:34.906Z,18.69
2018-12-25T05:50:34.962Z,18.74
2018-12-25T05:51:34.876Z,18.68
2018-12-25T05:52:35.109Z,18.74
2018-12-25T05:53:34.843Z,18.71
2018-12-25T05:54:34.848Z,18.68
2018-12-25T05:55:34.827Z,18.76
2018-12-25T05:56:34.815Z,18.75
2018-12-25T05:57:34.818Z,18.69
2018-12-25T05:58:34.797Z,18.72
2018-12-25T05:59:34.803Z,18.72
2018-12-25T06:00:34.766Z,18.71
2018-12-25T06:01:34.761Z,18.66
2018-12-25T06:02:34.742Z,18.65
2018-12-25T06:03:34.731Z,18.75
2018-12-25T06:04:34.737Z,18.68
2018-12-25T06:05:34.716Z,18.74
2018-12-25T06:06:34.704Z,18.65
2018-12-25T06:07:34.695Z,18.69
2018-12-25T06:08:34.932Z,18.75
2018-12-25T06:09:34.671Z,18.68
2018-12-25T06:10:34.671Z,18.68
2018-12-25T06:11:34.667Z,18.71
2018-12-25T06:12:34.634Z,18.69
2018-12-25T06:13:34.640Z,18.66
2018-12-25T06:14:34.644Z,18.72
2018-12-25T06:15:34.617Z,18.68
2018-12-25T06:16:34.610Z,18.66
2018-12-25T06:17:34.584Z,18.66
2018-12-25T06:18:34.575Z,18.65
2018-12-25T06:19:34.557Z,18.75
2018-12-25T06:20:34.565Z,18.69
2018-12-25T06:21:34.535Z,18.68
2018-12-25T06:22:34.546Z,18.74
2018-12-25T06:23:34.518Z,18.71
2018-12-25T06:24:34.524Z,18.71
2018-12-25T06:25:34.526Z,18.68
2018-12-25T06:26:34.510Z,18.62
2018-12-25T06:27:34.476Z,18.69
2018-12-25T06:28:34.476Z,18.69
2018-12-25T06:29:34.703Z,18.68
2018-12-25T06:30:34.704Z,18.68
2018-12-25T06:31:34.443Z,18.72
2018-12-25T06:32:34.415Z,18.68
2018-12-25T06:33:34.744Z,18.69
2018-12-25T06:34:34.394Z,18.66
2018-12-25T06:35:34.417Z,18.68
2018-12-25T06:36:34.377Z,18.66
2018-12-25T06:37:34.615Z,18.68
2018-12-25T06:38:34.356Z,18.65
2018-12-25T06:39:34.345Z,18.68
2018-12-25T06:40:34.352Z,18.65
2018-12-25T06:41:34.575Z,18.71
2018-12-25T06:42:34.320Z,18.65
2018-12-25T06:43:34.298Z,18.69
2018-12-25T06:44:34.293Z,18.74
2018-12-25T06:45:34.290Z,18.64
2018-12-25T06:46:34.530Z,18.72
2018-12-25T06:47:34.254Z,18.68
2018-12-25T06:48:34.547Z,18.72
2018-12-25T06:49:34.253Z,18.66
2018-12-25T06:50:34.292Z,18.71
2018-12-25T06:51:34.218Z,18.65
2018-12-25T06:52:34.208Z,18.68
2018-12-25T06:53:34.189Z,18.68
2018-12-25T06:54:34.183Z,18.66
2018-12-25T06:55:34.255Z,18.66
2018-12-25T06:56:34.160Z,18.68
2018-12-25T06:57:34.145Z,18.65
2018-12-25T06:58:34.132Z,18.75
2018-12-25T06:59:34.145Z,18.69
2018-12-25T07:00:34.396Z,18.66
2018-12-25T07:01:34.120Z,18.69
2018-12-25T07:02:34.088Z,18.74
2018-12-25T07:03:34.183Z,18.62
2018-12-25T07:04:34.082Z,18.68
2018-12-25T07:05:34.071Z,18.65
2018-12-25T07:06:34.066Z,18.71
2018-12-25T07:07:34.039Z,18.66
2018-12-25T07:08:34.026Z,18.68
2018-12-25T07:09:34.023Z,18.68
2018-12-25T07:10:34.285Z,18.72
2018-12-25T07:11:33.995Z,18.69
2018-12-25T07:12:33.982Z,18.68
2018-12-25T07:13:33.996Z,18.71
2018-12-25T07:14:33.973Z,18.68
2018-12-25T07:15:33.969Z,18.66
2018-12-25T07:16:33.992Z,18.68
2018-12-25T07:17:34.068Z,18.65
2018-12-25T07:18:34.231Z,18.69
2018-12-25T07:19:33.909Z,18.71
2018-12-25T07:20:34.025Z,18.62
2018-12-25T07:21:34.169Z,18.69
2018-12-25T07:22:33.883Z,18.69
2018-12-25T07:23:33.895Z,18.71
2018-12-25T07:24:33.853Z,18.64
2018-12-25T07:25:33.905Z,18.71
2018-12-25T07:26:33.838Z,18.69
2018-12-25T07:27:33.824Z,18.66
2018-12-25T07:28:33.808Z,18.75
2018-12-25T07:29:33.799Z,18.66
2018-12-25T07:30:33.783Z,18.72
2018-12-25T07:31:33.797Z,18.71
2018-12-25T07:32:34.013Z,18.64
2018-12-25T07:33:33.747Z,18.71
2018-12-25T07:34:34.002Z,18.71
2018-12-25T07:35:33.733Z,18.72
2018-12-25T07:36:37.413Z,18.65
2018-12-25T07:37:33.711Z,18.65
2018-12-25T07:38:33.695Z,18.68
2018-12-25T07:39:33.683Z,18.71
2018-12-25T07:40:33.678Z,18.66
2018-12-25T07:41:33.677Z,18.65
2018-12-25T07:42:33.654Z,18.68
2018-12-25T07:43:33.641Z,18.71
2018-12-25T07:44:33.880Z,18.66
2018-12-25T07:45:33.615Z,18.66
2018-12-25T07:46:33.621Z,18.74
2018-12-25T07:47:33.598Z,18.65
2018-12-25T07:48:33.609Z,18.66
2018-12-25T07:49:33.901Z,18.65
2018-12-25T07:50:33.562Z,18.68
2018-12-25T07:51:33.591Z,18.74
2018-12-25T07:52:33.546Z,18.68
2018-12-25T07:53:33.534Z,18.68
2018-12-25T07:54:33.527Z,18.65
2018-12-25T07:55:33.514Z,18.74
2018-12-25T07:56:33.511Z,18.69
2018-12-25T07:57:33.509Z,18.66
2018-12-25T07:58:33.476Z,18.71
2018-12-25T07:59:33.464Z,18.65
2018-12-25T08:00:33.481Z,18.65
2018-12-25T08:01:33.463Z,18.62
2018-12-25T08:02:33.440Z,18.71
2018-12-25T08:03:33.429Z,18.65
2018-12-25T08:04:33.414Z,18.62
2018-12-25T08:05:33.410Z,18.69
2018-12-25T08:06:33.403Z,18.68
2018-12-25T08:07:33.642Z,18.68
2018-12-25T08:08:33.373Z,18.62
2018-12-25T08:09:33.365Z,18.68
2018-12-25T08:10:33.354Z,18.64
2018-12-25T08:11:33.352Z,18.66
2018-12-25T08:12:33.600Z,18.65
2018-12-25T08:13:33.323Z,18.72
2018-12-25T08:14:33.302Z,18.68
2018-12-25T08:15:33.296Z,18.64
2018-12-25T08:16:36.305Z,18.64
2018-12-25T08:17:33.271Z,18.64
2018-12-25T08:18:33.283Z,18.76
2018-12-25T08:19:33.539Z,18.66
2018-12-25T08:20:33.261Z,18.75
2018-12-25T08:21:35.586Z,18.65
2018-12-25T08:22:33.222Z,18.64
2018-12-25T08:23:33.208Z,18.62
2018-12-25T08:24:33.189Z,18.65
2018-12-25T08:25:33.197Z,18.65
2018-12-25T08:26:33.188Z,18.62
2018-12-25T08:27:33.176Z,18.68
2018-12-25T08:28:33.155Z,18.65
2018-12-25T08:29:33.142Z,18.68
2018-12-25T08:30:33.126Z,18.69
2018-12-25T08:31:33.145Z,18.62
2018-12-25T08:32:33.128Z,18.60
2018-12-25T08:33:33.138Z,18.66
2018-12-25T08:34:33.093Z,18.68
2018-12-25T08:35:33.078Z,18.64
2018-12-25T08:36:33.093Z,18.68
2018-12-25T08:37:33.058Z,18.62
2018-12-25T08:38:33.049Z,18.66
2018-12-25T08:39:33.040Z,18.68
2018-12-25T08:40:33.032Z,18.69
2018-12-25T08:41:33.030Z,18.65
2018-12-25T08:42:33.138Z,18.69
2018-12-25T08:43:33.269Z,18.69
2018-12-25T08:44:32.982Z,18.65
2018-12-25T08:45:32.972Z,18.62
2018-12-25T08:46:32.974Z,18.66
2018-12-25T08:47:33.205Z,18.65
2018-12-25T08:48:32.937Z,18.62
2018-12-25T08:49:32.919Z,18.64
2018-12-25T08:50:32.915Z,18.62
2018-12-25T08:51:37.629Z,18.62
2018-12-25T08:52:32.930Z,18.66
2018-12-25T08:53:32.880Z,18.68
2018-12-25T08:54:32.876Z,18.71
2018-12-25T08:55:32.863Z,18.66
2018-12-25T08:56:32.848Z,18.65
2018-12-25T08:57:32.894Z,18.65
2018-12-25T08:58:32.827Z,18.65
2018-12-25T08:59:33.063Z,18.68
2018-12-25T09:00:32.800Z,18.66
2018-12-25T09:01:32.791Z,18.69
2018-12-25T09:02:32.798Z,18.69
2018-12-25T09:03:32.776Z,18.71
2018-12-25T09:04:32.762Z,18.71
2018-12-25T09:05:32.808Z,18.68
2018-12-25T09:06:32.741Z,18.68
2018-12-25T09:07:32.740Z,18.66
2018-12-25T09:08:34.997Z,18.72
2018-12-25T09:09:32.710Z,18.75
2018-12-25T09:10:32.694Z,18.74
2018-12-25T09:11:32.686Z,18.76
2018-12-25T09:12:32.701Z,18.74
2018-12-25T09:13:32.669Z,18.74
2018-12-25T09:14:32.667Z,18.72
2018-12-25T09:15:32.639Z,18.71
2018-12-25T09:16:32.623Z,18.68
2018-12-25T09:17:32.636Z,18.69
2018-12-25T09:18:32.866Z,18.74
2018-12-25T09:19:32.595Z,18.71
2018-12-25T09:20:32.846Z,18.74
2018-12-25T09:21:32.651Z,18.75
2018-12-25T09:22:32.589Z,18.74
2018-12-25T09:23:32.558Z,18.72
2018-12-25T09:24:32.626Z,18.75
2018-12-25T09:25:32.525Z,18.72
2018-12-25T09:26:32.520Z,18.72
2018-12-25T09:27:32.525Z,18.75
2018-12-25T09:28:32.510Z,18.65
2018-12-25T09:29:32.481Z,18.76
2018-12-25T09:30:32.478Z,18.66
2018-12-25T09:31:32.721Z,18.71
2018-12-25T09:32:32.474Z,18.74
2018-12-25T09:33:32.462Z,18.69
2018-12-25T09:34:32.431Z,18.72
2018-12-25T09:35:32.747Z,18.76
2018-12-25T09:36:32.408Z,18.75
2018-12-25T09:37:32.415Z,18.75
2018-12-25T09:38:32.394Z,18.75
2018-12-25T09:39:32.424Z,18.75
2018-12-25T09:40:32.364Z,18.78
2018-12-25T09:41:32.362Z,18.78
2018-12-25T09:42:39.668Z,18.78
2018-12-25T09:43:32.365Z,18.76
2018-12-25T09:44:32.327Z,18.76
2018-12-25T09:45:33.152Z,18.71
2018-12-25T09:46:32.316Z,18.74
2018-12-25T09:47:32.308Z,18.75
2018-12-25T09:48:32.279Z,18.82
2018-12-25T09:49:32.321Z,18.72
2018-12-25T09:50:32.254Z,18.78
2018-12-25T09:51:32.284Z,18.75
2018-12-25T09:52:32.248Z,18.82
2018-12-25T09:53:32.236Z,18.74
2018-12-25T09:54:32.241Z,18.78
2018-12-25T09:55:32.459Z,18.84
2018-12-25T09:56:32.440Z,18.79
2018-12-25T09:57:32.194Z,18.79
2018-12-25T09:58:32.184Z,18.83
2018-12-25T09:59:32.161Z,18.76
2018-12-25T10:00:32.162Z,18.89
2018-12-25T10:01:32.150Z,18.78
2018-12-25T10:02:32.143Z,18.79
2018-12-25T10:03:32.126Z,18.84
2018-12-25T10:04:32.114Z,18.84
2018-12-25T10:05:32.091Z,18.75
2018-12-25T10:06:32.096Z,18.79
2018-12-25T10:07:32.147Z,18.84
2018-12-25T10:08:32.070Z,18.76
2018-12-25T10:09:32.048Z,18.83
2018-12-25T10:10:32.038Z,18.87
2018-12-25T10:11:32.284Z,18.84
2018-12-25T10:12:32.032Z,18.75
2018-12-25T10:13:32.009Z,18.83
2018-12-25T10:14:32.045Z,18.83
2018-12-25T10:15:31.997Z,18.84
2018-12-25T10:16:31.978Z,18.84
2018-12-25T10:17:31.984Z,18.79
2018-12-25T10:18:31.967Z,18.89
2018-12-25T10:19:32.754Z,18.84
2018-12-25T10:20:31.937Z,18.84
2018-12-25T10:21:32.166Z,18.82
2018-12-25T10:22:31.922Z,18.83
2018-12-25T10:23:31.908Z,18.87
2018-12-25T10:24:31.884Z,18.86
2018-12-25T10:25:31.916Z,18.83
2018-12-25T10:26:31.976Z,18.82
2018-12-25T10:27:31.863Z,18.82
2018-12-25T10:28:31.901Z,18.87
2018-12-25T10:29:31.831Z,18.78
2018-12-25T10:30:32.077Z,18.84
2018-12-25T10:31:31.866Z,18.84
2018-12-25T10:32:31.809Z,18.76
2018-12-25T10:33:31.801Z,18.83
2018-12-25T10:34:31.776Z,18.91
2018-12-25T10:35:32.090Z,18.86
2018-12-25T10:36:31.750Z,18.84
2018-12-25T10:37:31.738Z,18.86
2018-12-25T10:38:32.023Z,18.93
2018-12-25T10:39:32.016Z,18.84
2018-12-25T10:40:31.707Z,18.89
2018-12-25T10:41:31.949Z,18.86
2018-12-25T10:42:31.949Z,18.89
2018-12-25T10:43:31.703Z,18.89
2018-12-25T10:44:31.666Z,18.83
2018-12-25T10:45:31.655Z,18.84
2018-12-25T10:46:31.670Z,18.84
2018-12-25T10:47:31.646Z,18.91
2018-12-25T10:48:31.641Z,18.83
2018-12-25T10:49:31.631Z,18.84
2018-12-25T10:50:31.598Z,18.86
2018-12-25T10:51:31.594Z,18.89
2018-12-25T10:52:31.642Z,18.89
2018-12-25T10:53:31.574Z,18.91
2018-12-25T10:54:31.555Z,18.89
2018-12-25T10:55:31.799Z,18.90
2018-12-25T10:56:31.529Z,18.94
2018-12-25T10:57:31.519Z,18.90
2018-12-25T10:58:31.517Z,18.90
2018-12-25T10:59:31.497Z,18.89
2018-12-25T11:00:31.739Z,18.94
2018-12-25T11:01:31.486Z,18.86
2018-12-25T11:02:31.733Z,18.91
2018-12-25T11:03:31.461Z,18.89
2018-12-25T11:04:31.442Z,18.99
2018-12-25T11:05:31.452Z,18.89
2018-12-25T11:06:31.414Z,18.87
2018-12-25T11:07:31.669Z,18.90
2018-12-25T11:08:31.409Z,18.87
2018-12-25T11:09:31.389Z,18.94
2018-12-25T11:10:31.384Z,18.93
2018-12-25T11:11:31.403Z,18.86
2018-12-25T11:12:31.369Z,18.87
2018-12-25T11:13:31.391Z,18.89
2018-12-25T11:14:31.328Z,18.94
2018-12-25T11:15:31.336Z,18.94
2018-12-25T11:16:31.306Z,18.93
2018-12-25T11:17:31.292Z,18.93
2018-12-25T11:18:31.554Z,18.96
2018-12-25T11:19:31.321Z,18.96
2018-12-25T11:20:31.270Z,18.93
2018-12-25T11:21:31.265Z,18.91
2018-12-25T11:22:31.240Z,18.90
2018-12-25T11:23:31.502Z,18.94
2018-12-25T11:24:31.220Z,18.94
2018-12-25T11:25:31.228Z,18.90
2018-12-25T11:26:31.223Z,18.94
2018-12-25T11:27:31.185Z,18.96
2018-12-25T11:28:31.201Z,19.02
2018-12-25T11:29:31.825Z,18.97
2018-12-25T11:30:31.189Z,18.91
2018-12-25T11:31:31.150Z,18.96
2018-12-25T11:32:31.143Z,18.91
2018-12-25T11:33:31.141Z,18.89
2018-12-25T11:34:31.116Z,18.96
2018-12-25T11:35:31.121Z,18.96
2018-12-25T11:36:31.113Z,18.94
2018-12-25T11:37:31.078Z,19.01
2018-12-25T11:38:31.078Z,18.93
2018-12-25T11:39:31.054Z,18.99
2018-12-25T11:40:31.044Z,18.94
2018-12-25T11:41:31.043Z,18.93
2018-12-25T11:42:31.024Z,19.02
2018-12-25T11:43:31.023Z,19.05
2018-12-25T11:44:30.998Z,18.99
2018-12-25T11:45:30.990Z,19.02
2018-12-25T11:46:30.981Z,19.01
2018-12-25T11:47:30.982Z,19.05
2018-12-25T11:48:31.214Z,18.96
2018-12-25T11:49:30.994Z,18.90
2018-12-25T11:50:30.930Z,18.97
2018-12-25T11:51:30.919Z,19.02
2018-12-25T11:52:30.913Z,18.97
2018-12-25T11:53:30.911Z,18.91
2018-12-25T11:54:30.927Z,18.96
2018-12-25T11:55:30.884Z,18.96
2018-12-25T11:56:30.867Z,18.91
2018-12-25T11:57:30.858Z,18.94
2018-12-25T11:58:30.853Z,19.06
2018-12-25T11:59:30.907Z,18.97
2018-12-25T12:00:30.827Z,19.01
2018-12-25T12:01:31.063Z,19.02
2018-12-25T12:02:30.817Z,19.05
2018-12-25T12:03:30.802Z,19.05
2018-12-25T12:04:30.836Z,19.02
2018-12-25T12:05:30.794Z,19.01
2018-12-25T12:06:30.760Z,19.02
2018-12-25T12:07:30.745Z,19.02
2018-12-25T12:08:30.806Z,19.10
2018-12-25T12:09:30.745Z,19.09
2018-12-25T12:10:30.716Z,19.15
2018-12-25T12:11:30.988Z,19.06
2018-12-25T12:12:30.701Z,19.06
2018-12-25T12:13:30.950Z,18.97
2018-12-25T12:14:30.685Z,19.12
2018-12-25T12:15:30.933Z,19.13
2018-12-25T12:16:30.761Z,19.09
2018-12-25T12:17:30.636Z,19.06
2018-12-25T12:18:30.632Z,19.10
2018-12-25T12:19:30.655Z,19.17
2018-12-25T12:20:30.874Z,19.23
2018-12-25T12:21:30.607Z,19.09
2018-12-25T12:22:36.989Z,19.06
2018-12-25T12:23:30.579Z,19.12
2018-12-25T12:24:30.580Z,19.06
2018-12-25T12:25:30.572Z,19.16
2018-12-25T12:26:30.556Z,19.17
2018-12-25T12:27:30.556Z,19.15
2018-12-25T12:28:31.123Z,19.17
2018-12-25T12:29:30.527Z,19.12
2018-12-25T12:30:30.531Z,19.15
2018-12-25T12:31:30.497Z,19.16
2018-12-25T12:32:30.474Z,19.15
2018-12-25T12:33:30.472Z,19.12
2018-12-25T12:34:30.802Z,19.09
2018-12-25T12:35:30.712Z,19.06
2018-12-25T12:36:30.448Z,19.20
2018-12-25T12:37:30.421Z,19.17
2018-12-25T12:38:30.407Z,19.06
2018-12-25T12:39:30.668Z,19.12
2018-12-25T12:40:30.387Z,19.17
2018-12-25T12:41:30.499Z,19.23
2018-12-25T12:42:30.384Z,19.06
2018-12-25T12:43:30.408Z,19.06
2018-12-25T12:44:30.366Z,19.16
2018-12-25T12:45:30.356Z,19.13
2018-12-25T12:46:30.334Z,19.09
2018-12-25T12:47:30.524Z,19.05
2018-12-25T12:48:30.583Z,19.20
2018-12-25T12:49:31.376Z,19.09
2018-12-25T12:50:30.539Z,19.02
2018-12-25T12:51:30.289Z,19.10
2018-12-25T12:52:30.302Z,19.09